Time;durP1;ratioP1;P1;durP2;ratioP2;P2;SDS_P1;SDS_P2;PMS_P1;PMS_P2;Temp;Humidity;BMP_temperature;BMP_pressure;BME280_temperature;BME280_humidity;BME280_pressure;Samples;Min_cycle;Max_cycle;Signal;HPM_P1;HPM_P2
2023/05/26 00:00:06;;;;;;;5.03;4.30;;;;;;;;;;10100916;28;20074;-67
2023/05/26 00:05:05;;;;;;;8.93;4.97;;;;;;;;;;10103496;28;20078;-67
2023/05/26 00:10:03;;;;;;;13.35;5.20;;;;;;;;;;10101239;28;20066;-66
2023/05/26 00:15:01;;;;;;;6.30;4.40;;;;;;;;;;10101036;28;20070;-67
2023/05/26 00:20:01;;;;;;;5.00;4.50;;;;;;;;;;10100998;28;20644;-67
2023/05/26 00:24:59;;;;;;;7.35;4.43;;;;;;;;;;10097934;28;20474;-67
2023/05/26 00:29:58;;;;;;;6.15;4.35;;;;;;;;;;10099952;28;20508;-67
2023/05/26 00:34:56;;;;;;;6.35;4.50;;;;;;;;;;10099164;28;20066;-67
2023/05/26 00:39:57;;;;;;;5.82;5.03;;;;;;;;;;10099943;28;20468;-67
2023/05/26 00:44:55;;;;;;;6.00;4.28;;;;;;;;;;10097923;28;20074;-67
2023/05/26 00:49:54;;;;;;;5.53;4.60;;;;;;;;;;10094785;28;20083;-67
2023/05/26 00:54:53;;;;;;;6.25;4.90;;;;;;;;;;10103391;28;20085;-67
2023/05/26 00:59:53;;;;;;;5.10;4.60;;;;;;;;;;10097934;28;20085;-67
2023/05/26 01:04:52;;;;;;;4.68;3.95;;;;;;;;;;10096682;28;20081;-67
2023/05/26 01:09:51;;;;;;;6.38;4.75;;;;;;;;;;10093807;28;20085;-67
2023/05/26 01:14:54;;;;;;;6.40;4.95;;;;;;;;;;10096122;28;20082;-67
2023/05/26 01:20:06;;;;;;;8.10;5.00;;;;;;;;;;10096464;28;20078;-67
2023/05/26 01:25:13;;;;;;;9.40;4.97;;;;;;;;;;10096860;28;20531;-67
2023/05/26 01:30:13;;;;;;;6.35;5.13;;;;;;;;;;10099937;28;20517;-67
2023/05/26 01:35:11;;;;;;;6.43;5.15;;;;;;;;;;10094445;28;20079;-65
2023/05/26 01:40:11;;;;;;;8.73;4.95;;;;;;;;;;10108900;28;20078;-67
2023/05/26 01:45:11;;;;;;;7.13;4.97;;;;;;;;;;10099918;28;20069;-67
2023/05/26 01:50:14;;;;;;;6.57;4.65;;;;;;;;;;10112021;28;20107;-67
2023/05/26 01:55:13;;;;;;;6.25;4.90;;;;;;;;;;10099466;28;20069;-67
2023/05/26 02:00:13;;;;;;;7.00;4.65;;;;;;;;;;10095934;28;20066;-67
2023/05/26 02:05:15;;;;;;;7.38;5.30;;;;;;;;;;10103723;28;20074;-67
2023/05/26 02:10:13;;;;;;;7.93;6.03;;;;;;;;;;10097508;28;20536;-67
2023/05/26 02:15:12;;;;;;;5.57;5.03;;;;;;;;;;10097820;28;20544;-67
2023/05/26 02:20:11;;;;;;;8.45;4.95;;;;;;;;;;10098087;28;20074;-67
2023/05/26 02:25:11;;;;;;;5.82;4.78;;;;;;;;;;10094048;28;20078;-67
2023/05/26 02:30:10;;;;;;;6.70;5.10;;;;;;;;;;10097406;28;20070;-67
2023/05/26 02:35:08;;;;;;;7.45;5.97;;;;;;;;;;10092283;28;20078;-67
2023/05/26 02:40:09;;;;;;;9.90;5.82;;;;;;;;;;10096324;28;20074;-67
2023/05/26 02:45:09;;;;;;;6.57;4.85;;;;;;;;;;10101879;28;20066;-67
2023/05/26 02:50:08;;;;;;;8.98;5.30;;;;;;;;;;10104568;28;20074;-67
2023/05/26 02:55:08;;;;;;;7.88;5.07;;;;;;;;;;10101366;28;20082;-67
2023/05/26 03:00:10;;;;;;;8.63;5.72;;;;;;;;;;10104741;28;20075;-67
2023/05/26 03:05:12;;;;;;;9.50;6.00;;;;;;;;;;10102525;28;20119;-68
2023/05/26 03:10:11;;;;;;;7.65;5.85;;;;;;;;;;10121044;28;20091;-67
2023/05/26 03:15:11;;;;;;;8.93;5.55;;;;;;;;;;10105258;28;20066;-67
2023/05/26 03:20:12;;;;;;;10.98;6.22;;;;;;;;;;10103286;28;20066;-67
2023/05/26 03:25:10;;;;;;;6.07;4.43;;;;;;;;;;10104626;28;20089;-67
2023/05/26 03:30:15;;;;;;;8.77;5.35;;;;;;;;;;10098147;28;20084;-67
2023/05/26 03:35:18;;;;;;;8.63;5.55;;;;;;;;;;10100468;28;20075;-67
2023/05/26 03:40:16;;;;;;;9.60;5.57;;;;;;;;;;10113815;28;20082;-67
2023/05/26 03:45:15;;;;;;;9.07;5.50;;;;;;;;;;10107421;28;20566;-67
2023/05/26 03:50:13;;;;;;;6.95;5.95;;;;;;;;;;10099430;28;20477;-66
2023/05/26 03:55:17;;;;;;;7.20;5.90;;;;;;;;;;10104207;28;20073;-67
2023/05/26 04:00:16;;;;;;;7.43;5.40;;;;;;;;;;10102914;28;20911;-67
2023/05/26 04:05:15;;;;;;;8.18;5.53;;;;;;;;;;10101832;28;20094;-67
2023/05/26 04:10:14;;;;;;;6.75;5.72;;;;;;;;;;10098189;28;20081;-67
2023/05/26 04:15:13;;;;;;;8.07;5.70;;;;;;;;;;10099214;28;20075;-67
2023/05/26 04:20:18;;;;;;;12.32;7.13;;;;;;;;;;10100458;28;20074;-67
2023/05/26 04:25:31;;;;;;;21.85;17.30;;;;;;;;;;10095142;28;20466;-67
2023/05/26 04:30:40;;;;;;;17.95;16.10;;;;;;;;;;10099706;28;20097;-67
2023/05/26 04:35:54;;;;;;;7.05;6.32;;;;;;;;;;10104694;28;20066;-66
2023/05/26 04:40:57;;;;;;;9.02;5.90;;;;;;;;;;10101840;28;20078;-65
2023/05/26 04:45:56;;;;;;;6.90;6.30;;;;;;;;;;10099011;28;20074;-66
2023/05/26 04:50:55;;;;;;;7.70;5.78;;;;;;;;;;10104049;28;20066;-66
2023/05/26 04:55:55;;;;;;;9.73;6.63;;;;;;;;;;10094940;28;20067;-65
2023/05/26 05:00:53;;;;;;;9.27;6.38;;;;;;;;;;10088378;28;20087;-65
2023/05/26 05:06:12;;;;;;;7.60;5.70;;;;;;;;;;10088023;28;20070;-66
2023/05/26 05:11:12;;;;;;;16.58;5.70;;;;;;;;;;10089783;28;20074;-66
2023/05/26 05:16:11;;;;;;;10.07;5.90;;;;;;;;;;10088931;28;20075;-67
2023/05/26 05:21:12;;;;;;;10.00;6.63;;;;;;;;;;10093949;28;20074;-68
2023/05/26 05:26:16;;;;;;;10.05;5.63;;;;;;;;;;10094540;28;20089;-68
2023/05/26 05:31:14;;;;;;;14.65;6.60;;;;;;;;;;10102450;28;20113;-68
2023/05/26 05:36:13;;;;;;;15.10;7.25;;;;;;;;;;10095295;28;20154;-69
2023/05/26 05:41:11;;;;;;;9.25;6.30;;;;;;;;;;10110237;28;20078;-69
2023/05/26 05:46:12;;;;;;;7.63;6.90;;;;;;;;;;10095546;28;20071;-68
2023/05/26 05:51:26;;;;;;;8.35;7.35;;;;;;;;;;10096017;28;20079;-68
2023/05/26 05:56:26;;;;;;;11.18;6.90;;;;;;;;;;10094965;28;20074;-69
2023/05/26 06:01:26;;;;;;;10.50;8.25;;;;;;;;;;10089543;28;20086;-68
2023/05/26 06:06:25;;;;;;;9.80;7.30;;;;;;;;;;10099135;28;20093;-68
2023/05/26 06:11:23;;;;;;;10.02;7.25;;;;;;;;;;10091951;28;20553;-68
2023/05/26 06:16:22;;;;;;;9.60;7.15;;;;;;;;;;10088958;28;20082;-68
2023/05/26 06:21:23;;;;;;;12.68;6.82;;;;;;;;;;10092630;28;20088;-68
2023/05/26 06:26:26;;;;;;;12.18;6.70;;;;;;;;;;10094693;28;20087;-68
2023/05/26 06:31:25;;;;;;;10.02;7.22;;;;;;;;;;10097195;28;20144;-68
2023/05/26 06:36:33;;;;;;;9.10;6.50;;;;;;;;;;10098286;28;20083;-68
2023/05/26 06:41:32;;;;;;;11.23;6.82;;;;;;;;;;10095986;28;20086;-68
2023/05/26 06:46:34;;;;;;;9.30;6.45;;;;;;;;;;10097605;28;20063;-68
2023/05/26 06:51:35;;;;;;;10.48;7.60;;;;;;;;;;10099025;28;20074;-68
2023/05/26 06:56:34;;;;;;;14.38;8.75;;;;;;;;;;10098192;28;20078;-69
2023/05/26 07:01:32;;;;;;;14.13;7.72;;;;;;;;;;10098476;28;20074;-67
2023/05/26 07:06:32;;;;;;;7.65;6.85;;;;;;;;;;10101685;28;20074;-68
2023/05/26 07:11:47;;;;;;;10.90;7.03;;;;;;;;;;10116578;28;20094;-68
2023/05/26 07:17:05;;;;;;;7.57;6.00;;;;;;;;;;10100807;28;20085;-69
2023/05/26 07:22:04;;;;;;;15.60;11.60;;;;;;;;;;10095362;28;20109;-69
2023/05/26 07:27:07;;;;;;;8.35;6.43;;;;;;;;;;10096819;28;20059;-69
2023/05/26 07:32:06;;;;;;;10.70;7.18;;;;;;;;;;10097156;28;20086;-69
2023/05/26 07:37:05;;;;;;;13.00;7.45;;;;;;;;;;10107068;28;20108;-69
2023/05/26 07:42:12;;;;;;;11.60;6.18;;;;;;;;;;10099074;28;20086;-69
2023/05/26 07:47:11;;;;;;;9.45;6.45;;;;;;;;;;10101333;28;20066;-69
2023/05/26 07:52:09;;;;;;;7.55;5.90;;;;;;;;;;10100085;28;20523;-69
2023/05/26 07:57:07;;;;;;;9.48;6.15;;;;;;;;;;10099858;28;20074;-69
2023/05/26 08:02:20;;;;;;;7.10;5.38;;;;;;;;;;10099954;28;20074;-69
2023/05/26 08:07:19;;;;;;;9.50;5.50;;;;;;;;;;10099814;28;20062;-69
2023/05/26 08:12:17;;;;;;;8.93;5.72;;;;;;;;;;10099441;28;20075;-69
2023/05/26 08:17:15;;;;;;;5.72;4.97;;;;;;;;;;10098975;28;20085;-69
2023/05/26 08:22:15;;;;;;;5.65;5.15;;;;;;;;;;10098493;28;20074;-69
2023/05/26 08:27:13;;;;;;;16.20;5.90;;;;;;;;;;10099705;28;20098;-69
2023/05/26 08:32:11;;;;;;;6.18;5.57;;;;;;;;;;10095546;28;20508;-69
2023/05/26 08:37:11;;;;;;;9.93;5.32;;;;;;;;;;10098577;28;20170;-68
2023/05/26 08:42:13;;;;;;;6.35;4.75;;;;;;;;;;10095496;28;20074;-69
2023/05/26 08:47:12;;;;;;;9.52;5.03;;;;;;;;;;10097593;28;20075;-68
2023/05/26 08:52:13;;;;;;;9.35;5.82;;;;;;;;;;10097810;28;20081;-69
2023/05/26 08:57:13;;;;;;;11.23;5.68;;;;;;;;;;10097458;28;20472;-69
2023/05/26 09:02:11;;;;;;;10.68;4.70;;;;;;;;;;10096913;28;20077;-69
2023/05/26 09:07:09;;;;;;;5.07;3.90;;;;;;;;;;10097387;28;20523;-69
2023/05/26 09:12:11;;;;;;;13.18;4.65;;;;;;;;;;10097800;28;20066;-69
2023/05/26 09:17:12;;;;;;;6.35;3.67;;;;;;;;;;10096757;28;20082;-69
2023/05/26 09:22:11;;;;;;;6.65;4.30;;;;;;;;;;10096910;28;20074;-69
2023/05/26 09:27:16;;;;;;;5.65;3.47;;;;;;;;;;10096423;28;20086;-69
2023/05/26 09:32:16;;;;;;;9.32;4.00;;;;;;;;;;10095821;28;20063;-69
2023/05/26 09:37:14;;;;;;;4.32;3.92;;;;;;;;;;10094240;28;20094;-69
2023/05/26 09:42:13;;;;;;;6.00;4.10;;;;;;;;;;10095224;28;20070;-69
2023/05/26 09:47:14;;;;;;;5.45;4.38;;;;;;;;;;10095923;28;20326;-69
2023/05/26 09:52:13;;;;;;;8.75;4.05;;;;;;;;;;10095482;28;20085;-69
2023/05/26 09:57:14;;;;;;;4.75;3.92;;;;;;;;;;10095097;28;20090;-69
2023/05/26 10:02:18;;;;;;;5.00;3.45;;;;;;;;;;10095946;28;20081;-69
2023/05/26 10:07:19;;;;;;;12.55;3.58;;;;;;;;;;10095484;28;20528;-69
2023/05/26 10:12:18;;;;;;;6.65;4.03;;;;;;;;;;10095527;28;20501;-68
2023/05/26 10:17:16;;;;;;;7.45;4.22;;;;;;;;;;10095178;28;20117;-69
2023/05/26 10:22:21;;;;;;;4.18;3.60;;;;;;;;;;10090586;28;20082;-68
2023/05/26 10:27:24;;;;;;;5.97;3.65;;;;;;;;;;10095419;28;21942;-69
2023/05/26 10:32:41;;;;;;;11.70;4.32;;;;;;;;;;10094248;28;20074;-68
2023/05/26 10:37:39;;;;;;;6.00;4.15;;;;;;;;;;10094826;28;20078;-68
2023/05/26 10:42:39;;;;;;;4.47;4.05;;;;;;;;;;10094704;28;20063;-68
2023/05/26 10:47:47;;;;;;;5.20;4.70;;;;;;;;;;10095489;28;20075;-68
2023/05/26 10:52:48;;;;;;;6.35;4.07;;;;;;;;;;10095108;28;20115;-69
2023/05/26 10:57:48;;;;;;;4.55;3.95;;;;;;;;;;10093988;28;20082;-69
2023/05/26 11:02:46;;;;;;;5.18;3.95;;;;;;;;;;10093695;28;20492;-68
2023/05/26 11:07:44;;;;;;;6.75;4.13;;;;;;;;;;10097155;28;20078;-69
2023/05/26 11:12:57;;;;;;;6.03;4.55;;;;;;;;;;10098165;28;20074;-68
2023/05/26 11:18:10;;;;;;;14.25;4.28;;;;;;;;;;10100962;28;20083;-68
2023/05/26 11:23:13;;;;;;;8.07;3.90;;;;;;;;;;10098893;28;20078;-69
2023/05/26 11:28:18;;;;;;;8.05;4.55;;;;;;;;;;10100723;28;20078;-68
2023/05/26 11:33:17;;;;;;;7.65;4.22;;;;;;;;;;10101427;28;20470;-69
2023/05/26 11:38:15;;;;;;;7.78;4.53;;;;;;;;;;10099986;28;20086;-69
2023/05/26 11:43:14;;;;;;;15.48;6.80;;;;;;;;;;10101349;28;20071;-69
2023/05/26 11:48:13;;;;;;;11.20;5.35;;;;;;;;;;10100125;28;20100;-69
2023/05/26 11:53:11;;;;;;;6.22;5.63;;;;;;;;;;10099864;28;20472;-66
2023/05/26 11:58:12;;;;;;;7.00;4.25;;;;;;;;;;10105469;28;20109;-69
2023/05/26 12:03:19;;;;;;;5.93;3.80;;;;;;;;;;10099953;28;20860;-69
2023/05/26 12:08:17;;;;;;;3.67;2.97;;;;;;;;;;10099790;28;20078;-69
2023/05/26 12:13:15;;;;;;;4.22;3.08;;;;;;;;;;10098492;28;20078;-69
2023/05/26 12:18:22;;;;;;;4.10;3.70;;;;;;;;;;10098550;28;20078;-68
2023/05/26 12:23:25;;;;;;;3.33;3.03;;;;;;;;;;10098443;28;20539;-69
2023/05/26 12:28:25;;;;;;;5.40;3.80;;;;;;;;;;10099858;28;20584;-69
2023/05/26 12:33:23;;;;;;;3.90;3.47;;;;;;;;;;10098348;28;20063;-67
2023/05/26 12:38:22;;;;;;;5.82;3.75;;;;;;;;;;10099280;28;20071;-67
2023/05/26 12:43:22;;;;;;;5.45;3.90;;;;;;;;;;10095560;28;20070;-68
2023/05/26 12:48:20;;;;;;;5.30;4.18;;;;;;;;;;10097983;28;20070;-69
2023/05/26 12:53:18;;;;;;;10.65;4.10;;;;;;;;;;10096137;28;20093;-68
2023/05/26 12:58:17;;;;;;;5.22;3.97;;;;;;;;;;10098190;28;20283;-68
2023/05/26 13:03:18;;;;;;;6.80;3.90;;;;;;;;;;10097537;28;20066;-68
2023/05/26 13:08:17;;;;;;;6.45;3.97;;;;;;;;;;10098319;28;20066;-69
2023/05/26 13:13:15;;;;;;;11.20;3.83;;;;;;;;;;10096126;28;20461;-68
2023/05/26 13:18:14;;;;;;;6.78;3.90;;;;;;;;;;10096691;28;20078;-69
2023/05/26 13:23:14;;;;;;;5.90;3.63;;;;;;;;;;10096005;28;20662;-68
2023/05/26 13:28:13;;;;;;;5.22;4.72;;;;;;;;;;10095987;28;20167;-69
2023/05/26 13:33:11;;;;;;;5.50;3.85;;;;;;;;;;10095192;28;20071;-68
2023/05/26 13:38:09;;;;;;;6.22;3.88;;;;;;;;;;10096993;28;20461;-69
2023/05/26 13:43:09;;;;;;;6.30;3.65;;;;;;;;;;10093746;28;20089;-69
2023/05/26 13:48:07;;;;;;;3.92;3.33;;;;;;;;;;10095797;28;20067;-69
2023/05/26 13:53:06;;;;;;;4.40;3.38;;;;;;;;;;10094462;28;20532;-68
2023/05/26 13:58:05;;;;;;;10.02;3.90;;;;;;;;;;10095590;28;20070;-68
2023/05/26 14:03:05;;;;;;;4.10;3.70;;;;;;;;;;10094636;28;20078;-68
2023/05/26 14:08:05;;;;;;;5.45;3.75;;;;;;;;;;10095820;28;20078;-67
2023/05/26 14:13:04;;;;;;;10.25;4.20;;;;;;;;;;10095345;28;20071;-69
2023/05/26 14:18:03;;;;;;;6.57;3.88;;;;;;;;;;10096078;28;20508;-68
2023/05/26 14:23:07;;;;;;;4.60;3.43;;;;;;;;;;10094555;28;20062;-68
2023/05/26 14:28:05;;;;;;;5.07;4.13;;;;;;;;;;10095101;28;20077;-67
2023/05/26 14:33:06;;;;;;;4.43;3.65;;;;;;;;;;10095631;28;20070;-67
2023/05/26 14:38:04;;;;;;;6.65;4.50;;;;;;;;;;10096064;28;20511;-67
2023/05/26 14:43:04;;;;;;;8.77;4.45;;;;;;;;;;10100612;28;20067;-68
2023/05/26 14:48:02;;;;;;;10.05;4.75;;;;;;;;;;10112180;28;20051;-68
2023/05/26 14:53:01;;;;;;;5.05;3.88;;;;;;;;;;10100951;28;20081;-68
2023/05/26 14:57:59;;;;;;;8.20;4.78;;;;;;;;;;10108658;28;20081;-66
2023/05/26 15:02:59;;;;;;;6.75;3.83;;;;;;;;;;10104602;28;20580;-68
2023/05/26 15:07:57;;;;;;;5.18;4.30;;;;;;;;;;10106589;28;20070;-68
2023/05/26 15:12:56;;;;;;;5.60;3.72;;;;;;;;;;10102721;28;20058;-67
2023/05/26 15:17:54;;;;;;;4.95;4.10;;;;;;;;;;10097470;28;20119;-67
2023/05/26 15:22:54;;;;;;;5.25;4.70;;;;;;;;;;10094362;28;20089;-66
2023/05/26 15:27:52;;;;;;;8.85;5.22;;;;;;;;;;10100711;28;20082;-66
2023/05/26 15:32:50;;;;;;;3.30;3.00;;;;;;;;;;10101840;28;20078;-66
2023/05/26 15:37:49;;;;;;;6.75;3.58;;;;;;;;;;10104815;28;20071;-66
2023/05/26 15:43:01;;;;;;;6.20;3.90;;;;;;;;;;10100397;28;20494;-66
2023/05/26 15:47:59;;;;;;;10.77;3.88;;;;;;;;;;10103084;28;20625;-67
2023/05/26 15:52:57;;;;;;;5.35;3.40;;;;;;;;;;10101486;28;20067;-67
2023/05/26 15:57:57;;;;;;;5.20;4.00;;;;;;;;;;10104170;28;20070;-66
2023/05/26 16:03:00;;;;;;;4.27;3.97;;;;;;;;;;10091796;28;20089;-66
2023/05/26 16:07:58;;;;;;;9.05;3.88;;;;;;;;;;10102999;28;20081;-66
2023/05/26 16:12:56;;;;;;;7.25;4.70;;;;;;;;;;10094709;28;20070;-67
2023/05/26 16:17:54;;;;;;;9.10;4.07;;;;;;;;;;10095970;28;20074;-65
2023/05/26 16:22:54;;;;;;;6.47;3.72;;;;;;;;;;10099957;28;20062;-68
2023/05/26 16:27:53;;;;;;;7.65;6.43;;;;;;;;;;10100886;28;20073;-68
2023/05/26 16:32:51;;;;;;;10.00;4.95;;;;;;;;;;10095613;28;20070;-66
2023/05/26 16:37:49;;;;;;;6.78;4.95;;;;;;;;;;10092111;28;20079;-66
2023/05/26 16:42:49;;;;;;;6.05;3.38;;;;;;;;;;10097261;28;20498;-67
2023/05/26 16:47:47;;;;;;;5.68;3.63;;;;;;;;;;10094030;28;20190;-64
2023/05/26 16:52:49;;;;;;;5.40;4.90;;;;;;;;;;10097781;28;20089;-64
2023/05/26 16:57:53;;;;;;;5.00;3.90;;;;;;;;;;10104608;28;20082;-65
2023/05/26 17:02:51;;;;;;;5.60;3.78;;;;;;;;;;10103325;28;20077;-64
2023/05/26 17:07:50;;;;;;;9.40;5.78;;;;;;;;;;10105150;28;20551;-65
2023/05/26 17:12:49;;;;;;;10.25;7.05;;;;;;;;;;10109466;28;20500;-64
2023/05/26 17:17:50;;;;;;;9.98;6.10;;;;;;;;;;10112134;28;20487;-62
2023/05/26 17:22:49;;;;;;;9.40;4.70;;;;;;;;;;10104846;28;20143;-65
2023/05/26 17:27:47;;;;;;;8.43;3.80;;;;;;;;;;10102538;28;20085;-65
2023/05/26 17:32:45;;;;;;;8.18;4.22;;;;;;;;;;10100873;28;20121;-65
2023/05/26 17:37:45;;;;;;;5.82;4.38;;;;;;;;;;10099699;28;20121;-65
2023/05/26 17:42:44;;;;;;;5.25;4.35;;;;;;;;;;10105332;28;20071;-64
2023/05/26 17:47:42;;;;;;;8.02;5.22;;;;;;;;;;10085204;28;20530;-64
2023/05/26 17:52:40;;;;;;;7.82;4.80;;;;;;;;;;10103185;28;20480;-65
2023/05/26 17:57:40;;;;;;;6.43;4.03;;;;;;;;;;10101840;28;20075;-64
2023/05/26 18:02:38;;;;;;;6.75;3.88;;;;;;;;;;10096534;28;20154;-65
2023/05/26 18:07:36;;;;;;;6.43;4.25;;;;;;;;;;10099050;28;20078;-65
2023/05/26 18:12:35;;;;;;;9.88;3.88;;;;;;;;;;10099321;28;20058;-65
2023/05/26 18:17:35;;;;;;;4.72;3.60;;;;;;;;;;10105212;28;20066;-64
2023/05/26 18:22:35;;;;;;;7.32;3.50;;;;;;;;;;10101458;28;20122;-62
2023/05/26 18:27:35;;;;;;;5.57;4.38;;;;;;;;;;10107215;28;20066;-65
2023/05/26 18:32:35;;;;;;;6.55;4.30;;;;;;;;;;10104899;28;20074;-63
2023/05/26 18:37:33;;;;;;;5.25;3.40;;;;;;;;;;10105070;28;20145;-63
2023/05/26 18:42:31;;;;;;;6.22;4.20;;;;;;;;;;10109811;28;20070;-64
2023/05/26 18:47:30;;;;;;;5.75;4.15;;;;;;;;;;10108515;28;20085;-62
2023/05/26 18:52:29;;;;;;;9.90;4.88;;;;;;;;;;10103261;28;20133;-64
2023/05/26 18:57:28;;;;;;;5.55;4.25;;;;;;;;;;10102035;28;20564;-64
2023/05/26 19:02:26;;;;;;;6.82;4.50;;;;;;;;;;10107710;28;20070;-64
2023/05/26 19:07:25;;;;;;;6.05;3.85;;;;;;;;;;10101304;28;20070;-65
2023/05/26 19:12:25;;;;;;;4.78;4.28;;;;;;;;;;10104292;28;20075;-63
2023/05/26 19:17:23;;;;;;;5.43;4.20;;;;;;;;;;10114761;28;20070;-64
2023/05/26 19:22:21;;;;;;;7.18;3.90;;;;;;;;;;10105673;28;20065;-64
2023/05/26 19:27:19;;;;;;;6.13;4.18;;;;;;;;;;10101388;28;20134;-63
2023/05/26 19:32:19;;;;;;;5.50;4.88;;;;;;;;;;10108326;28;20077;-63
2023/05/26 19:37:17;;;;;;;8.43;6.60;;;;;;;;;;10106718;28;20078;-63
2023/05/26 19:42:15;;;;;;;6.25;5.38;;;;;;;;;;10100263;28;20483;-64
2023/05/26 19:47:14;;;;;;;12.93;6.05;;;;;;;;;;10114855;28;20137;-63
2023/05/26 19:52:13;;;;;;;9.13;5.72;;;;;;;;;;10107065;28;20075;-63
2023/05/26 19:57:12;;;;;;;6.63;6.03;;;;;;;;;;10104554;28;20476;-63
2023/05/26 20:02:10;;;;;;;7.25;5.50;;;;;;;;;;10097584;28;20085;-63
2023/05/26 20:07:09;;;;;;;6.50;5.88;;;;;;;;;;10101359;28;20078;-63
2023/05/26 20:12:10;;;;;;;7.85;5.18;;;;;;;;;;10097709;28;20085;-62
2023/05/26 20:17:08;;;;;;;9.02;5.55;;;;;;;;;;10104994;28;20625;-63
2023/05/26 20:22:06;;;;;;;6.60;5.65;;;;;;;;;;10095421;28;20097;-62
2023/05/26 20:27:06;;;;;;;5.18;4.60;;;;;;;;;;10092842;28;20082;-61
2023/05/26 20:32:06;;;;;;;7.47;5.35;;;;;;;;;;10092283;28;20085;-62
2023/05/26 20:37:04;;;;;;;7.28;5.50;;;;;;;;;;10097091;28;20082;-62
2023/05/26 20:42:03;;;;;;;5.55;5.05;;;;;;;;;;10099802;28;20086;-62
2023/05/26 20:47:01;;;;;;;9.20;4.50;;;;;;;;;;10098563;28;20078;-62
2023/05/26 20:52:01;;;;;;;6.72;4.35;;;;;;;;;;10099408;28;20070;-63
2023/05/26 20:56:59;;;;;;;8.20;5.13;;;;;;;;;;10098848;28;20070;-63
2023/05/26 21:01:57;;;;;;;11.80;6.63;;;;;;;;;;10101330;28;20543;-63
2023/05/26 21:06:55;;;;;;;4.88;4.20;;;;;;;;;;10098350;28;20077;-63
2023/05/26 21:11:56;;;;;;;5.07;3.97;;;;;;;;;;10098277;28;20489;-63
2023/05/26 21:16:54;;;;;;;5.32;4.07;;;;;;;;;;10097335;28;20071;-63
2023/05/26 21:21:52;;;;;;;6.70;4.25;;;;;;;;;;10096877;28;20090;-63
2023/05/26 21:26:50;;;;;;;6.80;4.93;;;;;;;;;;10094372;28;20086;-63
2023/05/26 21:31:50;;;;;;;10.52;6.32;;;;;;;;;;10095783;28;20074;-62
2023/05/26 21:36:49;;;;;;;28.48;24.10;;;;;;;;;;10097378;28;20070;-63
2023/05/26 21:41:47;;;;;;;9.10;7.05;;;;;;;;;;10096720;28;20101;-63
2023/05/26 21:46:46;;;;;;;7.25;4.97;;;;;;;;;;10098059;28;20070;-63
2023/05/26 21:51:47;;;;;;;9.07;5.45;;;;;;;;;;10095699;28;20069;-62
2023/05/26 21:56:46;;;;;;;4.72;3.85;;;;;;;;;;10096129;28;20085;-62
2023/05/26 22:01:45;;;;;;;6.68;4.80;;;;;;;;;;10108772;28;20098;-62
2023/05/26 22:06:43;;;;;;;8.05;4.40;;;;;;;;;;10096634;28;20086;-63
2023/05/26 22:11:43;;;;;;;11.95;4.50;;;;;;;;;;10094719;28;20554;-62
2023/05/26 22:16:41;;;;;;;8.98;5.82;;;;;;;;;;10095884;28;20059;-63
2023/05/26 22:21:39;;;;;;;5.25;4.75;;;;;;;;;;10096949;28;20089;-62
2023/05/26 22:26:37;;;;;;;6.93;4.22;;;;;;;;;;10097583;28;20079;-63
2023/05/26 22:31:37;;;;;;;7.15;4.72;;;;;;;;;;10094750;28;20067;-62
2023/05/26 22:36:35;;;;;;;5.38;4.85;;;;;;;;;;10095261;28;20070;-63
2023/05/26 22:41:33;;;;;;;5.82;4.68;;;;;;;;;;10094667;28;20524;-63
2023/05/26 22:46:32;;;;;;;5.82;5.05;;;;;;;;;;10092902;28;20105;-63
2023/05/26 22:51:31;;;;;;;5.75;5.18;;;;;;;;;;10095462;28;20070;-63
2023/05/26 22:56:30;;;;;;;4.78;4.38;;;;;;;;;;10095004;28;20075;-63
2023/05/26 23:01:28;;;;;;;6.43;3.60;;;;;;;;;;10096524;28;20082;-63
2023/05/26 23:06:26;;;;;;;6.57;4.25;;;;;;;;;;10100259;28;20075;-63
2023/05/26 23:11:26;;;;;;;6.90;3.92;;;;;;;;;;10103382;28;20070;-63
2023/05/26 23:16:25;;;;;;;4.00;3.70;;;;;;;;;;10101300;28;20093;-64
2023/05/26 23:21:23;;;;;;;4.28;3.88;;;;;;;;;;10100649;28;20078;-63
2023/05/26 23:26:22;;;;;;;4.60;3.97;;;;;;;;;;10100897;28;20516;-63
2023/05/26 23:31:22;;;;;;;4.10;3.72;;;;;;;;;;10101801;28;20097;-64
2023/05/26 23:36:20;;;;;;;5.32;4.53;;;;;;;;;;10101591;28;20066;-63
2023/05/26 23:41:18;;;;;;;9.90;4.03;;;;;;;;;;10100226;28;20081;-63
2023/05/26 23:46:16;;;;;;;4.53;4.13;;;;;;;;;;10100350;28;20058;-63
2023/05/26 23:51:16;;;;;;;5.45;4.07;;;;;;;;;;10100404;28;20089;-63
2023/05/26 23:56:14;;;;;;;6.40;4.68;;;;;;;;;;10100829;28;20070;-63
